sensor_id;sensor_type;location;lat;lon;timestamp;pressure;altitude;pressure_sealevel;temperature;humidity
65756;BME280;52489;47.502;18.940;2022-08-30T00:00:54;98352.94;;;20.72;74.77
65756;BME280;52489;47.502;18.940;2022-08-30T00:02:06;98350.22;;;20.68;74.86
65756;BME280;52489;47.502;18.940;2022-08-30T00:03:11;98351.28;;;20.64;74.51
65756;BME280;52489;47.502;18.940;2022-08-30T00:04:16;98357.03;;;20.66;74.15
65756;BME280;52489;47.502;18.940;2022-08-30T00:05:19;98345.34;;;20.71;73.77
65756;BME280;52489;47.502;18.940;2022-08-30T00:06:23;98350.47;;;20.60;74.06
65756;BME280;52489;47.502;18.940;2022-08-30T00:07:26;98352.19;;;20.72;73.32
65756;BME280;52489;47.502;18.940;2022-08-30T00:08:29;98348.44;;;20.76;73.29
65756;BME280;52489;47.502;18.940;2022-08-30T00:09:31;98347.69;;;20.76;73.37
65756;BME280;52489;47.502;18.940;2022-08-30T00:10:34;98349.38;;;20.64;73.40
65756;BME280;52489;47.502;18.940;2022-08-30T00:11:47;98352.13;;;20.68;73.29
65756;BME280;52489;47.502;18.940;2022-08-30T00:12:51;98350.81;;;20.81;72.45
65756;BME280;52489;47.502;18.940;2022-08-30T00:13:55;98347.06;;;20.82;72.40
65756;BME280;52489;47.502;18.940;2022-08-30T00:14:58;98348.91;;;20.82;72.23
65756;BME280;52489;47.502;18.940;2022-08-30T00:16:02;98353.06;;;20.79;72.43
65756;BME280;52489;47.502;18.940;2022-08-30T00:17:06;98350.16;;;20.88;71.88
65756;BME280;52489;47.502;18.940;2022-08-30T00:18:09;98350.88;;;20.85;72.15
65756;BME280;52489;47.502;18.940;2022-08-30T00:19:12;98350.75;;;20.78;71.99
65756;BME280;52489;47.502;18.940;2022-08-30T00:20:19;98359.19;;;20.80;72.12
65756;BME280;52489;47.502;18.940;2022-08-30T00:21:22;98351.91;;;20.77;71.62
65756;BME280;52489;47.502;18.940;2022-08-30T00:22:25;98354.84;;;20.72;71.70
65756;BME280;52489;47.502;18.940;2022-08-30T00:23:28;98354.37;;;20.66;72.23
65756;BME280;52489;47.502;18.940;2022-08-30T00:24:30;98360.81;;;20.65;72.17
65756;BME280;52489;47.502;18.940;2022-08-30T00:25:33;98348.00;;;20.71;71.90
65756;BME280;52489;47.502;18.940;2022-08-30T00:26:36;98351.41;;;20.71;71.99
65756;BME280;52489;47.502;18.940;2022-08-30T00:27:39;98356.25;;;20.65;71.87
65756;BME280;52489;47.502;18.940;2022-08-30T00:28:43;98348.28;;;20.65;72.11
65756;BME280;52489;47.502;18.940;2022-08-30T00:29:46;98351.38;;;20.67;71.79
65756;BME280;52489;47.502;18.940;2022-08-30T00:30:52;98350.00;;;20.77;71.22
65756;BME280;52489;47.502;18.940;2022-08-30T00:31:55;98352.47;;;20.66;71.34
65756;BME280;52489;47.502;18.940;2022-08-30T00:32:58;98355.50;;;20.88;70.81
65756;BME280;52489;47.502;18.940;2022-08-30T00:34:01;98351.06;;;20.73;70.89
65756;BME280;52489;47.502;18.940;2022-08-30T00:35:04;98344.16;;;20.68;71.24
65756;BME280;52489;47.502;18.940;2022-08-30T00:36:08;98348.00;;;20.71;71.19
65756;BME280;52489;47.502;18.940;2022-08-30T00:37:10;98354.78;;;20.68;70.96
65756;BME280;52489;47.502;18.940;2022-08-30T00:38:14;98349.56;;;20.75;70.70
65756;BME280;52489;47.502;18.940;2022-08-30T00:39:17;98352.00;;;20.84;70.02
65756;BME280;52489;47.502;18.940;2022-08-30T00:40:20;98353.53;;;20.85;70.09
65756;BME280;52489;47.502;18.940;2022-08-30T00:41:28;98348.03;;;20.74;70.67
65756;BME280;52489;47.502;18.940;2022-08-30T00:42:32;98355.59;;;20.72;70.72
65756;BME280;52489;47.502;18.940;2022-08-30T00:43:35;98356.09;;;20.78;70.67
65756;BME280;52489;47.502;18.940;2022-08-30T00:44:39;98353.19;;;20.86;69.88
65756;BME280;52489;47.502;18.940;2022-08-30T00:45:42;98354.34;;;20.85;70.04
65756;BME280;52489;47.502;18.940;2022-08-30T00:46:45;98362.66;;;20.84;69.76
65756;BME280;52489;47.502;18.940;2022-08-30T00:47:49;98351.78;;;20.93;69.45
65756;BME280;52489;47.502;18.940;2022-08-30T00:48:52;98350.16;;;20.88;69.82
65756;BME280;52489;47.502;18.940;2022-08-30T00:49:55;98352.06;;;20.87;69.76
65756;BME280;52489;47.502;18.940;2022-08-30T00:51:01;98341.97;;;20.74;70.49
65756;BME280;52489;47.502;18.940;2022-08-30T00:52:05;98349.81;;;20.89;69.52
65756;BME280;52489;47.502;18.940;2022-08-30T00:53:14;98349.41;;;20.87;69.21
65756;BME280;52489;47.502;18.940;2022-08-30T00:54:18;98349.16;;;20.73;69.55
65756;BME280;52489;47.502;18.940;2022-08-30T00:55:21;98347.34;;;20.77;69.42
65756;BME280;52489;47.502;18.940;2022-08-30T00:56:25;98358.38;;;20.79;69.45
65756;BME280;52489;47.502;18.940;2022-08-30T00:57:30;98347.63;;;20.72;69.77
65756;BME280;52489;47.502;18.940;2022-08-30T00:58:36;98348.03;;;20.74;69.83
65756;BME280;52489;47.502;18.940;2022-08-30T00:59:43;98355.44;;;20.84;68.98
65756;BME280;52489;47.502;18.940;2022-08-30T01:00:51;98356.34;;;20.92;68.55
65756;BME280;52489;47.502;18.940;2022-08-30T01:01:55;98355.81;;;20.83;68.42
65756;BME280;52489;47.502;18.940;2022-08-30T01:02:58;98359.75;;;20.93;68.41
65756;BME280;52489;47.502;18.940;2022-08-30T01:04:01;98356.56;;;20.83;68.79
65756;BME280;52489;47.502;18.940;2022-08-30T01:05:07;98361.03;;;20.79;68.99
65756;BME280;52489;47.502;18.940;2022-08-30T01:06:17;98360.88;;;20.68;69.55
65756;BME280;52489;47.502;18.940;2022-08-30T01:07:20;98348.88;;;20.78;69.69
65756;BME280;52489;47.502;18.940;2022-08-30T01:08:23;98356.84;;;20.78;69.30
65756;BME280;52489;47.502;18.940;2022-08-30T01:09:26;98352.94;;;20.72;69.32
65756;BME280;52489;47.502;18.940;2022-08-30T01:10:29;98349.81;;;20.66;69.34
65756;BME280;52489;47.502;18.940;2022-08-30T01:11:36;98351.38;;;20.67;69.36
65756;BME280;52489;47.502;18.940;2022-08-30T01:12:40;98345.25;;;20.67;69.29
65756;BME280;52489;47.502;18.940;2022-08-30T01:13:45;98349.81;;;20.66;69.44
65756;BME280;52489;47.502;18.940;2022-08-30T01:14:48;98344.91;;;20.68;69.57
65756;BME280;52489;47.502;18.940;2022-08-30T01:15:54;98345.34;;;20.71;69.25
65756;BME280;52489;47.502;18.940;2022-08-30T01:16:59;98348.16;;;20.81;68.70
65756;BME280;52489;47.502;18.940;2022-08-30T01:18:03;98345.16;;;20.83;68.66
65756;BME280;52489;47.502;18.940;2022-08-30T01:20:04;98346.56;;;20.77;68.76
65756;BME280;52489;47.502;18.940;2022-08-30T01:20:57;98349.16;;;20.73;68.66
65756;BME280;52489;47.502;18.940;2022-08-30T01:23:23;98342.53;;;20.63;69.17
65756;BME280;52489;47.502;18.940;2022-08-30T01:24:30;98348.22;;;20.62;69.56
65756;BME280;52489;47.502;18.940;2022-08-30T01:25:34;98353.81;;;20.57;69.82
65756;BME280;52489;47.502;18.940;2022-08-30T01:26:39;98347.28;;;20.74;68.93
65756;BME280;52489;47.502;18.940;2022-08-30T01:27:46;98346.81;;;20.68;69.09
65756;BME280;52489;47.502;18.940;2022-08-30T01:28:53;98346.81;;;20.68;69.00
65756;BME280;52489;47.502;18.940;2022-08-30T01:29:57;98344.19;;;20.72;68.92
65756;BME280;52489;47.502;18.940;2022-08-30T01:31:00;98348.38;;;20.73;68.79
65756;BME280;52489;47.502;18.940;2022-08-30T01:32:04;98350.72;;;20.74;68.91
65756;BME280;52489;47.502;18.940;2022-08-30T01:33:10;98346.50;;;20.73;68.92
65756;BME280;52489;47.502;18.940;2022-08-30T01:34:13;98353.97;;;20.87;68.65
65756;BME280;52489;47.502;18.940;2022-08-30T01:35:19;98349.47;;;20.68;69.46
65756;BME280;52489;47.502;18.940;2022-08-30T01:36:23;98350.19;;;20.65;69.75
65756;BME280;52489;47.502;18.940;2022-08-30T01:37:29;98346.09;;;20.52;70.28
65756;BME280;52489;47.502;18.940;2022-08-30T01:38:52;98346.53;;;20.54;70.46
65756;BME280;52489;47.502;18.940;2022-08-30T01:39:55;98343.66;;;20.62;70.12
65756;BME280;52489;47.502;18.940;2022-08-30T01:41:00;98347.75;;;20.56;70.47
65756;BME280;52489;47.502;18.940;2022-08-30T01:42:09;98342.69;;;20.32;71.40
65756;BME280;52489;47.502;18.940;2022-08-30T01:43:13;98346.31;;;20.43;71.17
65756;BME280;52489;47.502;18.940;2022-08-30T01:44:16;98339.09;;;20.43;71.11
65756;BME280;52489;47.502;18.940;2022-08-30T01:45:19;98338.91;;;20.52;71.13
65756;BME280;52489;47.502;18.940;2022-08-30T01:46:25;98339.75;;;20.37;71.89
65756;BME280;52489;47.502;18.940;2022-08-30T01:47:28;98345.59;;;20.46;71.36
65756;BME280;52489;47.502;18.940;2022-08-30T01:48:31;98340.09;;;20.55;71.16
65756;BME280;52489;47.502;18.940;2022-08-30T01:49:36;98342.41;;;20.37;72.07
65756;BME280;52489;47.502;18.940;2022-08-30T01:50:40;98342.28;;;20.30;72.19
65756;BME280;52489;47.502;18.940;2022-08-30T01:51:43;98338.56;;;20.34;71.99
65756;BME280;52489;47.502;18.940;2022-08-30T01:52:46;98341.31;;;20.18;72.54
65756;BME280;52489;47.502;18.940;2022-08-30T01:53:49;98335.16;;;20.14;72.91
65756;BME280;52489;47.502;18.940;2022-08-30T01:54:52;98341.22;;;19.95;74.10
65756;BME280;52489;47.502;18.940;2022-08-30T01:55:55;98347.16;;;20.08;73.55
65756;BME280;52489;47.502;18.940;2022-08-30T01:56:58;98344.66;;;20.15;73.16
65756;BME280;52489;47.502;18.940;2022-08-30T01:58:00;98333.66;;;20.17;72.95
65756;BME280;52489;47.502;18.940;2022-08-30T01:59:04;98334.34;;;20.14;73.08
65756;BME280;52489;47.502;18.940;2022-08-30T02:00:09;98339.28;;;20.12;73.12
65756;BME280;52489;47.502;18.940;2022-08-30T02:01:14;98343.81;;;20.11;72.98
65756;BME280;52489;47.502;18.940;2022-08-30T02:02:26;98344.75;;;19.99;73.39
65756;BME280;52489;47.502;18.940;2022-08-30T02:03:30;98345.69;;;20.11;73.09
65756;BME280;52489;47.502;18.940;2022-08-30T02:04:36;98337.16;;;20.02;73.37
65756;BME280;52489;47.502;18.940;2022-08-30T02:05:39;98345.34;;;19.93;74.23
65756;BME280;52489;47.502;18.940;2022-08-30T02:06:42;98337.88;;;19.98;73.75
65756;BME280;52489;47.502;18.940;2022-08-30T02:07:46;98342.75;;;19.96;73.80
65756;BME280;52489;47.502;18.940;2022-08-30T02:08:49;98338.38;;;19.85;74.37
65756;BME280;52489;47.502;18.940;2022-08-30T02:09:52;98343.81;;;19.92;74.07
65756;BME280;52489;47.502;18.940;2022-08-30T02:10:55;98343.12;;;19.95;74.12
65756;BME280;52489;47.502;18.940;2022-08-30T02:11:59;98337.31;;;19.89;74.19
65756;BME280;52489;47.502;18.940;2022-08-30T02:13:02;98335.12;;;19.95;73.86
65756;BME280;52489;47.502;18.940;2022-08-30T02:14:05;98333.50;;;19.90;73.98
65756;BME280;52489;47.502;18.940;2022-08-30T02:15:09;98336.38;;;19.82;74.21
65756;BME280;52489;47.502;18.940;2022-08-30T02:16:15;98335.34;;;19.86;74.05
65756;BME280;52489;47.502;18.940;2022-08-30T02:17:18;98336.75;;;19.64;74.77
65756;BME280;52489;47.502;18.940;2022-08-30T02:18:22;98331.72;;;19.59;75.04
65756;BME280;52489;47.502;18.940;2022-08-30T02:19:25;98330.50;;;19.72;74.45
65756;BME280;52489;47.502;18.940;2022-08-30T02:20:28;98329.91;;;19.63;74.67
65756;BME280;52489;47.502;18.940;2022-08-30T02:21:31;98332.91;;;19.62;74.96
65756;BME280;52489;47.502;18.940;2022-08-30T02:22:37;98331.75;;;19.43;75.87
65756;BME280;52489;47.502;18.940;2022-08-30T02:23:51;98330.63;;;19.44;75.91
65756;BME280;52489;47.502;18.940;2022-08-30T02:24:54;98332.75;;;19.54;75.65
65756;BME280;52489;47.502;18.940;2022-08-30T02:25:59;98330.38;;;19.49;75.85
65756;BME280;52489;47.502;18.940;2022-08-30T02:27:03;98326.09;;;19.45;76.04
65756;BME280;52489;47.502;18.940;2022-08-30T02:28:08;98326.84;;;19.45;76.05
65756;BME280;52489;47.502;18.940;2022-08-30T02:29:11;98334.50;;;19.47;75.99
65756;BME280;52489;47.502;18.940;2022-08-30T02:30:15;98334.81;;;19.45;76.04
65756;BME280;52489;47.502;18.940;2022-08-30T02:31:19;98333.59;;;19.59;75.70
65756;BME280;52489;47.502;18.940;2022-08-30T02:32:22;98336.22;;;19.39;76.47
65756;BME280;52489;47.502;18.940;2022-08-30T02:33:26;98335.19;;;19.28;76.95
65756;BME280;52489;47.502;18.940;2022-08-30T02:34:30;98337.34;;;19.38;76.60
65756;BME280;52489;47.502;18.940;2022-08-30T02:35:33;98336.75;;;19.29;76.95
65756;BME280;52489;47.502;18.940;2022-08-30T02:36:38;98343.16;;;19.28;77.02
65756;BME280;52489;47.502;18.940;2022-08-30T02:37:42;98336.31;;;19.27;77.07
65756;BME280;52489;47.502;18.940;2022-08-30T02:38:46;98333.13;;;19.37;76.75
65756;BME280;52489;47.502;18.940;2022-08-30T02:39:48;98336.12;;;19.36;76.79
65756;BME280;52489;47.502;18.940;2022-08-30T02:40:51;98332.84;;;19.42;76.75
65756;BME280;52489;47.502;18.940;2022-08-30T02:41:54;98336.91;;;19.36;76.94
65756;BME280;52489;47.502;18.940;2022-08-30T02:42:57;98339.63;;;19.40;77.05
65756;BME280;52489;47.502;18.940;2022-08-30T02:44:00;98336.97;;;19.40;77.12
65756;BME280;52489;47.502;18.940;2022-08-30T02:45:03;98335.69;;;19.33;77.59
65756;BME280;52489;47.502;18.940;2022-08-30T02:46:07;98341.00;;;19.33;77.54
65756;BME280;52489;47.502;18.940;2022-08-30T02:47:10;98337.34;;;19.38;77.55
65756;BME280;52489;47.502;18.940;2022-08-30T02:48:14;98338.44;;;19.37;77.68
65756;BME280;52489;47.502;18.940;2022-08-30T02:49:17;98333.22;;;19.25;78.18
65756;BME280;52489;47.502;18.940;2022-08-30T02:50:44;98337.94;;;19.31;78.17
65756;BME280;52489;47.502;18.940;2022-08-30T02:51:48;98335.50;;;19.42;77.87
65756;BME280;52489;47.502;18.940;2022-08-30T02:52:51;98337.59;;;19.33;78.15
65756;BME280;52489;47.502;18.940;2022-08-30T02:53:57;98334.94;;;19.33;78.15
65756;BME280;52489;47.502;18.940;2022-08-30T02:54:59;98337.06;;;19.27;78.41
65756;BME280;52489;47.502;18.940;2022-08-30T02:56:03;98328.19;;;19.20;78.91
65756;BME280;52489;47.502;18.940;2022-08-30T02:57:06;98332.47;;;19.24;78.73
65756;BME280;52489;47.502;18.940;2022-08-30T02:58:21;98335.72;;;19.18;79.13
65756;BME280;52489;47.502;18.940;2022-08-30T02:59:24;98332.81;;;19.23;78.87
65756;BME280;52489;47.502;18.940;2022-08-30T03:00:28;98335.53;;;19.26;78.62
65756;BME280;52489;47.502;18.940;2022-08-30T03:01:31;98336.75;;;19.29;78.55
65756;BME280;52489;47.502;18.940;2022-08-30T03:02:37;98334.09;;;19.29;78.41
65756;BME280;52489;47.502;18.940;2022-08-30T03:03:43;98331.25;;;19.22;78.71
65756;BME280;52489;47.502;18.940;2022-08-30T03:04:48;98337.69;;;19.21;78.73
65756;BME280;52489;47.502;18.940;2022-08-30T03:05:51;98335.81;;;19.21;78.95
65756;BME280;52489;47.502;18.940;2022-08-30T03:06:54;98345.75;;;19.24;78.85
65756;BME280;52489;47.502;18.940;2022-08-30T03:07:57;98338.87;;;19.23;78.79
65756;BME280;52489;47.502;18.940;2022-08-30T03:08:59;98343.69;;;19.18;79.02
65756;BME280;52489;47.502;18.940;2022-08-30T03:10:02;98333.97;;;19.25;78.82
65756;BME280;52489;47.502;18.940;2022-08-30T03:11:05;98334.09;;;19.29;78.65
65756;BME280;52489;47.502;18.940;2022-08-30T03:12:09;98333.22;;;19.25;78.88
65756;BME280;52489;47.502;18.940;2022-08-30T03:13:11;98335.53;;;19.26;79.09
65756;BME280;52489;47.502;18.940;2022-08-30T03:14:14;98336.38;;;19.30;79.00
65756;BME280;52489;47.502;18.940;2022-08-30T03:15:17;98337.25;;;19.19;79.51
65756;BME280;52489;47.502;18.940;2022-08-30T03:16:19;98339.00;;;19.11;79.85
65756;BME280;52489;47.502;18.940;2022-08-30T03:17:24;98336.41;;;19.15;79.66
65756;BME280;52489;47.502;18.940;2022-08-30T03:18:27;98335.97;;;19.13;79.82
65756;BME280;52489;47.502;18.940;2022-08-30T03:19:29;98344.72;;;19.13;79.90
65756;BME280;52489;47.502;18.940;2022-08-30T03:20:33;98343.09;;;19.08;79.95
65756;BME280;52489;47.502;18.940;2022-08-30T03:21:39;98347.66;;;19.08;80.13
65756;BME280;52489;47.502;18.940;2022-08-30T03:22:41;98330.91;;;19.07;80.09
65756;BME280;52489;47.502;18.940;2022-08-30T03:23:44;98336.41;;;19.15;79.68
65756;BME280;52489;47.502;18.940;2022-08-30T03:24:47;98345.84;;;19.12;79.73
65756;BME280;52489;47.502;18.940;2022-08-30T03:25:51;98337.03;;;19.08;79.97
65756;BME280;52489;47.502;18.940;2022-08-30T03:26:56;98348.25;;;19.17;79.67
65756;BME280;52489;47.502;18.940;2022-08-30T03:27:58;98346.34;;;19.18;79.56
65756;BME280;52489;47.502;18.940;2022-08-30T03:29:02;98350.13;;;19.17;79.74
65756;BME280;52489;47.502;18.940;2022-08-30T03:30:06;98347.37;;;19.13;79.84
65756;BME280;52489;47.502;18.940;2022-08-30T03:31:10;98347.66;;;19.08;80.12
65756;BME280;52489;47.502;18.940;2022-08-30T03:32:13;98353.19;;;19.03;80.53
65756;BME280;52489;47.502;18.940;2022-08-30T03:33:16;98352.97;;;19.08;80.53
65756;BME280;52489;47.502;18.940;2022-08-30T03:34:24;98351.31;;;19.19;80.14
65756;BME280;52489;47.502;18.940;2022-08-30T03:35:27;98354.41;;;19.21;79.90
65756;BME280;52489;47.502;18.940;2022-08-30T03:36:34;98355.16;;;19.22;79.92
65756;BME280;52489;47.502;18.940;2022-08-30T03:37:37;98358.84;;;19.17;79.98
65756;BME280;52489;47.502;18.940;2022-08-30T03:38:40;98358.75;;;19.14;80.30
65756;BME280;52489;47.502;18.940;2022-08-30T03:39:42;98362.19;;;19.14;80.29
65756;BME280;52489;47.502;18.940;2022-08-30T03:40:47;98358.84;;;19.17;80.10
65756;BME280;52489;47.502;18.940;2022-08-30T03:41:50;98356.19;;;19.17;80.12
65756;BME280;52489;47.502;18.940;2022-08-30T03:42:53;98353.97;;;19.19;80.24
65756;BME280;52489;47.502;18.940;2022-08-30T03:43:56;98353.69;;;19.24;79.95
65756;BME280;52489;47.502;18.940;2022-08-30T03:45:03;98357.63;;;19.30;79.60
65756;BME280;52489;47.502;18.940;2022-08-30T03:46:06;98358.00;;;19.29;79.37
65756;BME280;52489;47.502;18.940;2022-08-30T03:47:09;98357.88;;;19.25;79.72
65756;BME280;52489;47.502;18.940;2022-08-30T03:48:12;98350.09;;;19.32;79.13
65756;BME280;52489;47.502;18.940;2022-08-30T03:49:15;98362.84;;;19.43;78.24
65756;BME280;52489;47.502;18.940;2022-08-30T03:50:18;98363.03;;;19.34;78.17
65756;BME280;52489;47.502;18.940;2022-08-30T03:51:24;98360.72;;;19.32;79.08
65756;BME280;52489;47.502;18.940;2022-08-30T03:52:27;98364.84;;;19.30;79.12
65756;BME280;52489;47.502;18.940;2022-08-30T03:53:29;98365.28;;;19.32;78.49
65756;BME280;52489;47.502;18.940;2022-08-30T03:54:32;98370.91;;;19.30;78.31
65756;BME280;52489;47.502;18.940;2022-08-30T03:55:35;98359.53;;;19.30;77.81
65756;BME280;52489;47.502;18.940;2022-08-30T03:56:38;98365.00;;;19.37;76.53
65756;BME280;52489;47.502;18.940;2022-08-30T03:57:41;98360.38;;;19.34;76.80
65756;BME280;52489;47.502;18.940;2022-08-30T03:58:45;98369.22;;;19.38;76.92
65756;BME280;52489;47.502;18.940;2022-08-30T03:59:48;98365.34;;;19.36;77.75
65756;BME280;52489;47.502;18.940;2022-08-30T04:00:51;98368.69;;;19.32;77.86
65756;BME280;52489;47.502;18.940;2022-08-30T04:01:53;98367.06;;;19.44;76.50
65756;BME280;52489;47.502;18.940;2022-08-30T04:02:56;98363.31;;;19.29;77.76
65756;BME280;52489;47.502;18.940;2022-08-30T04:03:59;98369.03;;;19.31;77.42
65756;BME280;52489;47.502;18.940;2022-08-30T04:05:04;98364.03;;;19.45;77.57
65756;BME280;52489;47.502;18.940;2022-08-30T04:06:07;98368.25;;;19.46;77.00
65756;BME280;52489;47.502;18.940;2022-08-30T04:07:10;98366.19;;;19.40;77.18
65756;BME280;52489;47.502;18.940;2022-08-30T04:08:13;98372.19;;;19.37;77.03
65756;BME280;52489;47.502;18.940;2022-08-30T04:09:16;98372.88;;;19.33;76.98
65756;BME280;52489;47.502;18.940;2022-08-30T04:10:20;98376.41;;;19.38;77.26
65756;BME280;52489;47.502;18.940;2022-08-30T04:11:22;98372.47;;;19.31;77.63
65756;BME280;52489;47.502;18.940;2022-08-30T04:12:25;98370.59;;;19.32;77.65
65756;BME280;52489;47.502;18.940;2022-08-30T04:13:28;98375.19;;;19.19;78.22
65756;BME280;52489;47.502;18.940;2022-08-30T04:14:32;98374.34;;;19.31;77.79
65756;BME280;52489;47.502;18.940;2022-08-30T04:15:35;98376.47;;;19.25;77.81
65756;BME280;52489;47.502;18.940;2022-08-30T04:16:38;98390.19;;;19.27;77.44
65756;BME280;52489;47.502;18.940;2022-08-30T04:17:41;98381.56;;;19.15;77.96
65756;BME280;52489;47.502;18.940;2022-08-30T04:18:44;98394.72;;;18.95;79.02
65756;BME280;52489;47.502;18.940;2022-08-30T04:19:47;98393.63;;;18.96;79.12
65756;BME280;52489;47.502;18.940;2022-08-30T04:20:50;98394.19;;;18.90;79.56
65756;BME280;52489;47.502;18.940;2022-08-30T04:21:53;98399.09;;;18.87;80.11
65756;BME280;52489;47.502;18.940;2022-08-30T04:22:56;98396.69;;;18.98;79.57
65756;BME280;52489;47.502;18.940;2022-08-30T04:23:59;98403.47;;;18.96;79.63
65756;BME280;52489;47.502;18.940;2022-08-30T04:25:03;98406.81;;;19.08;79.11
65756;BME280;52489;47.502;18.940;2022-08-30T04:26:07;98408.03;;;19.11;79.02
65756;BME280;52489;47.502;18.940;2022-08-30T04:27:10;98406.47;;;19.10;78.88
65756;BME280;52489;47.502;18.940;2022-08-30T04:28:13;98416.69;;;19.08;79.07
65756;BME280;52489;47.502;18.940;2022-08-30T04:29:16;98414.19;;;18.99;79.33
65756;BME280;52489;47.502;18.940;2022-08-30T04:30:19;98417.25;;;19.01;79.55
65756;BME280;52489;47.502;18.940;2022-08-30T04:31:22;98411.69;;;19.06;79.34
65756;BME280;52489;47.502;18.940;2022-08-30T04:32:25;98411.69;;;19.06;79.25
65756;BME280;52489;47.502;18.940;2022-08-30T04:33:27;98418.91;;;19.06;79.40
65756;BME280;52489;47.502;18.940;2022-08-30T04:34:30;98407.75;;;19.16;79.00
65756;BME280;52489;47.502;18.940;2022-08-30T04:35:33;98411.22;;;19.17;78.83
65756;BME280;52489;47.502;18.940;2022-08-30T04:36:35;98413.25;;;19.23;78.13
65756;BME280;52489;47.502;18.940;2022-08-30T04:37:39;98419.16;;;19.32;78.15
65756;BME280;52489;47.502;18.940;2022-08-30T04:38:41;98415.13;;;19.39;76.44
65756;BME280;52489;47.502;18.940;2022-08-30T04:39:44;98416.78;;;19.43;73.26
65756;BME280;52489;47.502;18.940;2022-08-30T04:40:48;98419.00;;;19.41;75.24
65756;BME280;52489;47.502;18.940;2022-08-30T04:41:50;98419.75;;;19.42;76.48
65756;BME280;52489;47.502;18.940;2022-08-30T04:42:53;98424.06;;;19.46;75.97
65756;BME280;52489;47.502;18.940;2022-08-30T04:44:00;98430.66;;;19.52;74.76
65756;BME280;52489;47.502;18.940;2022-08-30T04:45:07;98425.34;;;19.52;76.15
65756;BME280;52489;47.502;18.940;2022-08-30T04:46:12;98431.41;;;19.53;76.08
65756;BME280;52489;47.502;18.940;2022-08-30T04:47:15;98423.84;;;19.55;76.54
65756;BME280;52489;47.502;18.940;2022-08-30T04:48:20;98427.72;;;19.58;76.41
65756;BME280;52489;47.502;18.940;2022-08-30T04:49:26;98432.28;;;19.73;72.79
65756;BME280;52489;47.502;18.940;2022-08-30T04:50:29;98430.28;;;19.70;73.19
65756;BME280;52489;47.502;18.940;2022-08-30T04:51:32;98426.53;;;19.71;73.26
65756;BME280;52489;47.502;18.940;2022-08-30T04:52:35;98428.44;;;19.70;73.18
65756;BME280;52489;47.502;18.940;2022-08-30T04:53:39;98429.34;;;19.78;73.41
65756;BME280;52489;47.502;18.940;2022-08-30T04:54:42;98433.97;;;19.81;73.28
65756;BME280;52489;47.502;18.940;2022-08-30T04:55:45;98441.94;;;19.81;72.54
65756;BME280;52489;47.502;18.940;2022-08-30T04:56:50;98434.41;;;19.83;73.84
65756;BME280;52489;47.502;18.940;2022-08-30T04:57:53;98434.28;;;19.95;73.00
65756;BME280;52489;47.502;18.940;2022-08-30T04:58:56;98432.75;;;19.94;74.32
65756;BME280;52489;47.502;18.940;2022-08-30T04:59:59;98432.69;;;19.91;71.70
65756;BME280;52489;47.502;18.940;2022-08-30T05:01:02;98436.50;;;19.93;72.01
65756;BME280;52489;47.502;18.940;2022-08-30T05:02:05;98436.75;;;20.04;71.40
65756;BME280;52489;47.502;18.940;2022-08-30T05:03:08;98442.91;;;20.08;71.29
65756;BME280;52489;47.502;18.940;2022-08-30T05:04:15;98441.38;;;20.07;71.44
65756;BME280;52489;47.502;18.940;2022-08-30T05:05:18;98438.72;;;20.07;71.59
65756;BME280;52489;47.502;18.940;2022-08-30T05:06:39;98444.28;;;20.18;72.19
65756;BME280;52489;47.502;18.940;2022-08-30T05:07:42;98445.38;;;20.17;73.31
65756;BME280;52489;47.502;18.940;2022-08-30T05:08:46;98445.56;;;20.08;73.90
65756;BME280;52489;47.502;18.940;2022-08-30T05:09:48;98453.59;;;19.92;75.27
65756;BME280;52489;47.502;18.940;2022-08-30T05:10:51;98447.78;;;19.87;75.58
65756;BME280;52489;47.502;18.940;2022-08-30T05:11:54;98448.53;;;19.87;75.56
65756;BME280;52489;47.502;18.940;2022-08-30T05:12:57;98452.25;;;19.83;76.35
65756;BME280;52489;47.502;18.940;2022-08-30T05:14:05;98447.94;;;19.78;76.33
65756;BME280;52489;47.502;18.940;2022-08-30T05:15:10;98460.03;;;19.75;76.32
65756;BME280;52489;47.502;18.940;2022-08-30T05:16:13;98445.59;;;19.73;77.08
65756;BME280;52489;47.502;18.940;2022-08-30T05:17:19;98453.78;;;19.84;76.68
65756;BME280;52489;47.502;18.940;2022-08-30T05:18:22;98452.50;;;19.77;76.36
65756;BME280;52489;47.502;18.940;2022-08-30T05:19:24;98453.63;;;19.76;76.66
65756;BME280;52489;47.502;18.940;2022-08-30T05:20:27;98453.59;;;19.92;75.71
65756;BME280;52489;47.502;18.940;2022-08-30T05:21:30;98452.09;;;20.11;75.13
65756;BME280;52489;47.502;18.940;2022-08-30T05:22:35;98455.94;;;20.13;75.07
65756;BME280;52489;47.502;18.940;2022-08-30T05:23:39;98445.87;;;20.22;74.33
65756;BME280;52489;47.502;18.940;2022-08-30T05:24:42;98436.44;;;20.25;73.86
65756;BME280;52489;47.502;18.940;2022-08-30T05:25:45;98450.44;;;20.22;71.04
65756;BME280;52489;47.502;18.940;2022-08-30T05:26:47;98447.06;;;20.25;72.01
65756;BME280;52489;47.502;18.940;2022-08-30T05:27:51;98448.41;;;20.35;72.59
65756;BME280;52489;47.502;18.940;2022-08-30T05:28:54;98445.34;;;20.33;72.02
65756;BME280;52489;47.502;18.940;2022-08-30T05:29:57;98450.78;;;20.40;70.19
65756;BME280;52489;47.502;18.940;2022-08-30T05:31:01;98451.56;;;20.40;71.55
65756;BME280;52489;47.502;18.940;2022-08-30T05:32:04;98445.03;;;20.54;71.73
65756;BME280;52489;47.502;18.940;2022-08-30T05:33:06;98452.16;;;20.69;70.93
65756;BME280;52489;47.502;18.940;2022-08-30T05:34:09;98453.13;;;20.80;70.84
65756;BME280;52489;47.502;18.940;2022-08-30T05:35:15;98451.06;;;20.93;70.30
65756;BME280;52489;47.502;18.940;2022-08-30T05:36:25;98448.66;;;21.07;68.93
65756;BME280;52489;47.502;18.940;2022-08-30T05:37:28;98445.41;;;21.18;68.60